KDAN/DAN METAR and TAF weather

Enter ICAO airport designator
Station Type Date Time Source
KDAN METAR 2023/02/05 22:53 UTC NOAA

KDAN 052253Z AUTO VRB05KT 10SM CLR 11/01 A3010 RMK AO2 SLP190 T01110011


Station Type Date Time Source
KDAN Decoded METAR 2023/02/05 22:53 UTC NOAA

DANVILLE REGIONAL AIRPORT, VA, United States (KDAN) 36-34N 079-20W 175M
Feb 05, 2023 - 05:53 PM EST / 2023.02.05 2253 UTC
Wind: Variable at 6 MPH (5 KT):0
Visibility: 10 mile(s):0
Sky conditions: clear
Temperature: 52.0 F (11.1 C)
Dew Point: 34.0 F (1.1 C)
Relative Humidity: 50%
Pressure (altimeter): 30.1 in. Hg (1019 hPa)
ob: KDAN 052253Z AUTO VRB05KT 10SM CLR 11/01 A3010 RMK AO2 SLP190 T01110011
cycle: 23

Station Type Date Time Source
KDAN TAF 2023/02/05 18:22 UTC NOAA

TAF KDAN 051720Z 0518/0618 22008KT P6SM BKN040
FM052300 20003KT P6SM BKN120
FM061000 28006KT P6SM FEW250
FM061500 32012G20KT P6SM SKC

Example: see airport list